sensor_id;sensor_type;location;lat;lon;timestamp;temperature;humidity
65598;SHT31;52267;51.984;20.956;2023-06-14T00:00:54;13.34;83.70
65598;SHT31;52267;51.984;20.956;2023-06-14T00:03:42;13.38;83.70
65598;SHT31;52267;51.984;20.956;2023-06-14T00:06:09;13.34;83.77
65598;SHT31;52267;51.984;20.956;2023-06-14T00:08:36;13.33;83.80
65598;SHT31;52267;51.984;20.956;2023-06-14T00:11:04;13.33;83.69
65598;SHT31;52267;51.984;20.956;2023-06-14T00:13:31;13.34;83.71
65598;SHT31;52267;51.984;20.956;2023-06-14T00:15:58;13.37;83.68
65598;SHT31;52267;51.984;20.956;2023-06-14T00:18:25;13.38;83.64
65598;SHT31;52267;51.984;20.956;2023-06-14T00:20:53;13.37;83.57
65598;SHT31;52267;51.984;20.956;2023-06-14T00:23:20;13.38;83.59
65598;SHT31;52267;51.984;20.956;2023-06-14T00:25:47;13.40;83.60
65598;SHT31;52267;51.984;20.956;2023-06-14T00:28:14;13.40;83.62
65598;SHT31;52267;51.984;20.956;2023-06-14T00:30:41;13.39;83.68
65598;SHT31;52267;51.984;20.956;2023-06-14T00:33:10;13.40;83.68
65598;SHT31;52267;51.984;20.956;2023-06-14T00:35:37;13.41;83.69
65598;SHT31;52267;51.984;20.956;2023-06-14T00:38:04;13.42;83.77
65598;SHT31;52267;51.984;20.956;2023-06-14T00:40:31;13.41;83.79
65598;SHT31;52267;51.984;20.956;2023-06-14T00:42:59;13.40;83.81
65598;SHT31;52267;51.984;20.956;2023-06-14T00:45:26;13.42;83.77
65598;SHT31;52267;51.984;20.956;2023-06-14T00:47:53;13.42;83.78
65598;SHT31;52267;51.984;20.956;2023-06-14T00:50:21;13.43;83.74
65598;SHT31;52267;51.984;20.956;2023-06-14T00:52:49;13.43;83.75
65598;SHT31;52267;51.984;20.956;2023-06-14T00:55:17;13.41;83.81
65598;SHT31;52267;51.984;20.956;2023-06-14T00:57:44;13.39;83.72
65598;SHT31;52267;51.984;20.956;2023-06-14T01:00:12;13.40;83.78
65598;SHT31;52267;51.984;20.956;2023-06-14T01:02:39;13.41;83.85
65598;SHT31;52267;51.984;20.956;2023-06-14T01:05:07;13.42;83.80
65598;SHT31;52267;51.984;20.956;2023-06-14T01:13:35;13.42;83.98
65598;SHT31;52267;51.984;20.956;2023-06-14T01:16:06;13.44;83.94
65598;SHT31;52267;51.984;20.956;2023-06-14T01:18:35;13.44;83.88
65598;SHT31;52267;51.984;20.956;2023-06-14T01:21:04;13.43;83.84
65598;SHT31;52267;51.984;20.956;2023-06-14T01:23:33;13.41;83.86
65598;SHT31;52267;51.984;20.956;2023-06-14T01:26:03;13.42;83.87
65598;SHT31;52267;51.984;20.956;2023-06-14T01:28:31;13.42;83.91
65598;SHT31;52267;51.984;20.956;2023-06-14T01:31:00;13.42;83.87
65598;SHT31;52267;51.984;20.956;2023-06-14T01:33:32;13.39;84.03
65598;SHT31;52267;51.984;20.956;2023-06-14T01:36:02;13.38;84.04
65598;SHT31;52267;51.984;20.956;2023-06-14T01:38:31;13.37;83.97
65598;SHT31;52267;51.984;20.956;2023-06-14T01:40:59;13.38;84.01
65598;SHT31;52267;51.984;20.956;2023-06-14T01:43:29;13.38;84.03
65598;SHT31;52267;51.984;20.956;2023-06-14T01:45:58;13.35;84.07
65598;SHT31;52267;51.984;20.956;2023-06-14T01:48:26;13.34;84.13
65598;SHT31;52267;51.984;20.956;2023-06-14T01:50:53;13.34;84.09
65598;SHT31;52267;51.984;20.956;2023-06-14T01:53:20;13.32;84.18
65598;SHT31;52267;51.984;20.956;2023-06-14T01:55:47;13.33;84.13
65598;SHT31;52267;51.984;20.956;2023-06-14T01:58:15;13.34;84.10
65598;SHT31;52267;51.984;20.956;2023-06-14T02:00:43;13.33;84.14
65598;SHT31;52267;51.984;20.956;2023-06-14T02:03:10;13.34;84.04
65598;SHT31;52267;51.984;20.956;2023-06-14T02:05:39;13.33;84.02
65598;SHT31;52267;51.984;20.956;2023-06-14T02:08:06;13.32;84.08
65598;SHT31;52267;51.984;20.956;2023-06-14T02:10:34;13.33;84.05
65598;SHT31;52267;51.984;20.956;2023-06-14T02:13:01;13.31;84.12
65598;SHT31;52267;51.984;20.956;2023-06-14T02:15:28;13.31;84.17
65598;SHT31;52267;51.984;20.956;2023-06-14T02:18:03;13.30;84.26
65598;SHT31;52267;51.984;20.956;2023-06-14T02:20:31;13.29;84.32
65598;SHT31;52267;51.984;20.956;2023-06-14T02:22:58;13.28;84.36
65598;SHT31;52267;51.984;20.956;2023-06-14T02:25:26;13.29;84.30
65598;SHT31;52267;51.984;20.956;2023-06-14T02:27:57;13.29;84.38
65598;SHT31;52267;51.984;20.956;2023-06-14T02:30:24;13.30;84.41
65598;SHT31;52267;51.984;20.956;2023-06-14T02:32:51;13.32;84.34
65598;SHT31;52267;51.984;20.956;2023-06-14T02:35:19;13.34;84.22
65598;SHT31;52267;51.984;20.956;2023-06-14T02:37:48;13.35;84.19
65598;SHT31;52267;51.984;20.956;2023-06-14T02:40:15;13.35;84.27
65598;SHT31;52267;51.984;20.956;2023-06-14T02:42:42;13.34;84.34
65598;SHT31;52267;51.984;20.956;2023-06-14T02:45:09;13.35;84.36
65598;SHT31;52267;51.984;20.956;2023-06-14T02:47:37;13.34;84.35
65598;SHT31;52267;51.984;20.956;2023-06-14T02:50:04;13.36;84.35
65598;SHT31;52267;51.984;20.956;2023-06-14T02:52:32;13.37;84.36
65598;SHT31;52267;51.984;20.956;2023-06-14T02:54:59;13.36;84.36
65598;SHT31;52267;51.984;20.956;2023-06-14T02:57:27;13.38;84.35
65598;SHT31;52267;51.984;20.956;2023-06-14T02:59:54;13.37;84.39
65598;SHT31;52267;51.984;20.956;2023-06-14T03:02:21;13.38;84.36
65598;SHT31;52267;51.984;20.956;2023-06-14T03:04:48;13.36;84.29
65598;SHT31;52267;51.984;20.956;2023-06-14T03:07:15;13.34;84.33
65598;SHT31;52267;51.984;20.956;2023-06-14T03:09:46;13.31;84.35
65598;SHT31;52267;51.984;20.956;2023-06-14T03:12:13;13.29;84.33
65598;SHT31;52267;51.984;20.956;2023-06-14T03:14:41;13.28;84.28
65598;SHT31;52267;51.984;20.956;2023-06-14T03:17:08;13.26;84.29
65598;SHT31;52267;51.984;20.956;2023-06-14T03:19:36;13.25;84.29
65598;SHT31;52267;51.984;20.956;2023-06-14T03:22:04;13.23;84.29
65598;SHT31;52267;51.984;20.956;2023-06-14T03:24:31;13.21;84.26
65598;SHT31;52267;51.984;20.956;2023-06-14T03:27:03;13.19;84.28
65598;SHT31;52267;51.984;20.956;2023-06-14T03:29:30;13.16;84.42
65598;SHT31;52267;51.984;20.956;2023-06-14T03:32:01;13.13;84.37
65598;SHT31;52267;51.984;20.956;2023-06-14T03:34:29;13.16;84.37
65598;SHT31;52267;51.984;20.956;2023-06-14T03:36:56;13.21;84.31
65598;SHT31;52267;51.984;20.956;2023-06-14T03:39:23;13.26;84.25
65598;SHT31;52267;51.984;20.956;2023-06-14T03:41:50;13.32;84.23
65598;SHT31;52267;51.984;20.956;2023-06-14T03:44:18;13.37;84.28
65598;SHT31;52267;51.984;20.956;2023-06-14T03:46:45;13.41;84.20
65598;SHT31;52267;51.984;20.956;2023-06-14T03:49:13;13.43;84.23
65598;SHT31;52267;51.984;20.956;2023-06-14T03:51:46;13.45;84.19
65598;SHT31;52267;51.984;20.956;2023-06-14T03:54:17;13.44;84.26
65598;SHT31;52267;51.984;20.956;2023-06-14T03:56:44;13.46;84.27
65598;SHT31;52267;51.984;20.956;2023-06-14T03:59:12;13.49;84.19
65598;SHT31;52267;51.984;20.956;2023-06-14T04:01:39;13.50;84.15
65598;SHT31;52267;51.984;20.956;2023-06-14T04:04:13;13.51;84.21
65598;SHT31;52267;51.984;20.956;2023-06-14T04:06:42;13.51;84.15
65598;SHT31;52267;51.984;20.956;2023-06-14T04:09:09;13.51;84.20
65598;SHT31;52267;51.984;20.956;2023-06-14T04:11:36;13.54;84.23
65598;SHT31;52267;51.984;20.956;2023-06-14T04:14:05;13.57;84.26
65598;SHT31;52267;51.984;20.956;2023-06-14T04:16:32;13.62;84.29
65598;SHT31;52267;51.984;20.956;2023-06-14T04:19:00;13.66;84.29
65598;SHT31;52267;51.984;20.956;2023-06-14T04:21:27;13.71;84.32
65598;SHT31;52267;51.984;20.956;2023-06-14T04:23:55;13.77;84.28
65598;SHT31;52267;51.984;20.956;2023-06-14T04:26:22;13.83;84.33
65598;SHT31;52267;51.984;20.956;2023-06-14T04:28:56;13.87;84.37
65598;SHT31;52267;51.984;20.956;2023-06-14T04:31:31;13.93;84.31
65598;SHT31;52267;51.984;20.956;2023-06-14T04:34:00;13.98;84.37
65598;SHT31;52267;51.984;20.956;2023-06-14T04:36:28;14.04;84.27
65598;SHT31;52267;51.984;20.956;2023-06-14T04:38:55;14.11;84.25
65598;SHT31;52267;51.984;20.956;2023-06-14T04:41:22;14.17;84.20
65598;SHT31;52267;51.984;20.956;2023-06-14T04:43:54;14.23;84.27
65598;SHT31;52267;51.984;20.956;2023-06-14T04:46:23;14.27;84.30
65598;SHT31;52267;51.984;20.956;2023-06-14T04:48:50;14.33;84.21
65598;SHT31;52267;51.984;20.956;2023-06-14T04:51:17;14.39;84.01
65598;SHT31;52267;51.984;20.956;2023-06-14T04:53:47;14.43;83.93
65598;SHT31;52267;51.984;20.956;2023-06-14T04:56:16;14.44;83.81
65598;SHT31;52267;51.984;20.956;2023-06-14T04:58:43;14.46;83.72
65598;SHT31;52267;51.984;20.956;2023-06-14T05:01:10;14.50;83.76
65598;SHT31;52267;51.984;20.956;2023-06-14T05:03:39;14.56;83.64
65598;SHT31;52267;51.984;20.956;2023-06-14T05:06:07;14.61;83.61
65598;SHT31;52267;51.984;20.956;2023-06-14T05:08:35;14.66;83.53
65598;SHT31;52267;51.984;20.956;2023-06-14T05:11:02;14.69;83.46
65598;SHT31;52267;51.984;20.956;2023-06-14T05:13:29;14.73;83.37
65598;SHT31;52267;51.984;20.956;2023-06-14T05:15:59;14.76;83.34
65598;SHT31;52267;51.984;20.956;2023-06-14T05:18:26;14.80;83.39
65598;SHT31;52267;51.984;20.956;2023-06-14T05:20:53;14.83;83.43
65598;SHT31;52267;51.984;20.956;2023-06-14T05:23:20;14.88;83.37
65598;SHT31;52267;51.984;20.956;2023-06-14T05:25:47;14.92;83.36
65598;SHT31;52267;51.984;20.956;2023-06-14T05:28:15;14.96;83.31
65598;SHT31;52267;51.984;20.956;2023-06-14T05:30:42;15.00;83.19
65598;SHT31;52267;51.984;20.956;2023-06-14T05:33:10;15.04;83.13
65598;SHT31;52267;51.984;20.956;2023-06-14T05:35:37;15.07;83.13
65598;SHT31;52267;51.984;20.956;2023-06-14T05:38:04;15.13;83.05
65598;SHT31;52267;51.984;20.956;2023-06-14T05:40:35;15.19;82.90
65598;SHT31;52267;51.984;20.956;2023-06-14T05:43:02;15.26;82.79
65598;SHT31;52267;51.984;20.956;2023-06-14T05:45:29;15.33;82.76
65598;SHT31;52267;51.984;20.956;2023-06-14T05:47:56;15.37;82.87
65598;SHT31;52267;51.984;20.956;2023-06-14T05:50:23;15.44;82.75
65598;SHT31;52267;51.984;20.956;2023-06-14T05:52:50;15.52;82.64
65598;SHT31;52267;51.984;20.956;2023-06-14T05:55:17;15.57;82.50
65598;SHT31;52267;51.984;20.956;2023-06-14T05:57:44;15.59;82.28
65598;SHT31;52267;51.984;20.956;2023-06-14T06:00:12;15.64;82.19
65598;SHT31;52267;51.984;20.956;2023-06-14T06:02:43;15.69;82.12
65598;SHT31;52267;51.984;20.956;2023-06-14T06:05:12;15.76;82.23
65598;SHT31;52267;51.984;20.956;2023-06-14T06:07:39;15.90;82.18
65598;SHT31;52267;51.984;20.956;2023-06-14T06:10:06;16.04;81.86
65598;SHT31;52267;51.984;20.956;2023-06-14T06:12:34;16.13;81.61
65598;SHT31;52267;51.984;20.956;2023-06-14T06:15:01;16.22;81.59
65598;SHT31;52267;51.984;20.956;2023-06-14T06:17:29;16.36;81.48
65598;SHT31;52267;51.984;20.956;2023-06-14T06:19:56;16.53;81.29
65598;SHT31;52267;51.984;20.956;2023-06-14T06:22:23;16.68;81.11
65598;SHT31;52267;51.984;20.956;2023-06-14T06:24:51;16.84;80.85
65598;SHT31;52267;51.984;20.956;2023-06-14T06:27:18;16.93;80.64
65598;SHT31;52267;51.984;20.956;2023-06-14T06:29:45;17.12;80.35
65598;SHT31;52267;51.984;20.956;2023-06-14T06:32:12;17.28;80.21
65598;SHT31;52267;51.984;20.956;2023-06-14T06:34:39;17.38;80.04
65598;SHT31;52267;51.984;20.956;2023-06-14T06:37:07;17.49;79.75
65598;SHT31;52267;51.984;20.956;2023-06-14T06:39:34;17.62;79.26
65598;SHT31;52267;51.984;20.956;2023-06-14T06:42:01;17.81;79.04
65598;SHT31;52267;51.984;20.956;2023-06-14T06:44:28;18.01;78.62
65598;SHT31;52267;51.984;20.956;2023-06-14T06:46:55;18.15;78.77
65598;SHT31;52267;51.984;20.956;2023-06-14T06:49:24;18.28;78.60
65598;SHT31;52267;51.984;20.956;2023-06-14T06:52:04;18.39;78.33
65598;SHT31;52267;51.984;20.956;2023-06-14T06:54:33;18.41;77.68
65598;SHT31;52267;51.984;20.956;2023-06-14T06:57:00;18.51;77.40
65598;SHT31;52267;51.984;20.956;2023-06-14T06:59:30;18.61;77.01
65598;SHT31;52267;51.984;20.956;2023-06-14T07:01:57;18.78;76.52
65598;SHT31;52267;51.984;20.956;2023-06-14T07:04:25;18.95;75.94
65598;SHT31;52267;51.984;20.956;2023-06-14T07:06:52;19.00;75.36
65598;SHT31;52267;51.984;20.956;2023-06-14T07:09:19;19.08;75.12
65598;SHT31;52267;51.984;20.956;2023-06-14T07:11:47;19.27;74.90
65598;SHT31;52267;51.984;20.956;2023-06-14T07:14:14;19.42;74.61
65598;SHT31;52267;51.984;20.956;2023-06-14T07:16:41;19.56;73.96
65598;SHT31;52267;51.984;20.956;2023-06-14T07:19:09;19.66;73.66
65598;SHT31;52267;51.984;20.956;2023-06-14T07:21:37;19.63;73.50
65598;SHT31;52267;51.984;20.956;2023-06-14T07:24:07;19.72;72.88
65598;SHT31;52267;51.984;20.956;2023-06-14T07:26:34;19.95;72.71
65598;SHT31;52267;51.984;20.956;2023-06-14T07:29:02;20.05;71.92
65598;SHT31;52267;51.984;20.956;2023-06-14T07:31:29;20.17;71.78
65598;SHT31;52267;51.984;20.956;2023-06-14T07:33:56;20.13;71.74
65598;SHT31;52267;51.984;20.956;2023-06-14T07:36:23;20.17;71.62
65598;SHT31;52267;51.984;20.956;2023-06-14T07:38:50;20.10;71.33
65598;SHT31;52267;51.984;20.956;2023-06-14T07:41:17;20.23;71.40
65598;SHT31;52267;51.984;20.956;2023-06-14T07:43:44;20.33;70.67
65598;SHT31;52267;51.984;20.956;2023-06-14T07:46:11;20.41;69.66
65598;SHT31;52267;51.984;20.956;2023-06-14T07:48:39;20.37;69.09
65598;SHT31;52267;51.984;20.956;2023-06-14T07:51:06;20.31;69.19
65598;SHT31;52267;51.984;20.956;2023-06-14T07:53:33;20.34;69.96
65598;SHT31;52267;51.984;20.956;2023-06-14T07:56:00;20.35;68.76
65598;SHT31;52267;51.984;20.956;2023-06-14T07:58:29;20.31;69.23
65598;SHT31;52267;51.984;20.956;2023-06-14T08:00:56;20.32;69.23
65598;SHT31;52267;51.984;20.956;2023-06-14T08:03:23;20.24;67.94
65598;SHT31;52267;51.984;20.956;2023-06-14T08:05:50;20.27;68.68
65598;SHT31;52267;51.984;20.956;2023-06-14T08:08:18;20.34;69.03
65598;SHT31;52267;51.984;20.956;2023-06-14T08:10:45;20.49;68.76
65598;SHT31;52267;51.984;20.956;2023-06-14T08:13:12;20.67;67.76
65598;SHT31;52267;51.984;20.956;2023-06-14T08:15:39;20.81;67.31
65598;SHT31;52267;51.984;20.956;2023-06-14T08:18:06;20.92;66.90
65598;SHT31;52267;51.984;20.956;2023-06-14T08:20:33;20.93;66.54
65598;SHT31;52267;51.984;20.956;2023-06-14T08:23:02;20.85;66.45
65598;SHT31;52267;51.984;20.956;2023-06-14T08:25:30;20.98;66.94
65598;SHT31;52267;51.984;20.956;2023-06-14T08:27:58;21.06;66.32
65598;SHT31;52267;51.984;20.956;2023-06-14T08:30:26;21.12;66.03
65598;SHT31;52267;51.984;20.956;2023-06-14T08:32:53;21.17;65.99
65598;SHT31;52267;51.984;20.956;2023-06-14T08:35:22;21.35;65.37
65598;SHT31;52267;51.984;20.956;2023-06-14T08:37:49;21.50;64.90
65598;SHT31;52267;51.984;20.956;2023-06-14T08:40:20;21.53;64.34
65598;SHT31;52267;51.984;20.956;2023-06-14T08:42:53;21.45;64.34
65598;SHT31;52267;51.984;20.956;2023-06-14T08:45:22;21.51;64.05
65598;SHT31;52267;51.984;20.956;2023-06-14T08:47:51;21.54;63.68
65598;SHT31;52267;51.984;20.956;2023-06-14T08:50:22;21.53;63.97
65598;SHT31;52267;51.984;20.956;2023-06-14T08:52:51;21.59;63.35
65598;SHT31;52267;51.984;20.956;2023-06-14T08:55:23;21.72;63.41
65598;SHT31;52267;51.984;20.956;2023-06-14T08:57:55;22.07;63.13
65598;SHT31;52267;51.984;20.956;2023-06-14T09:00:27;22.36;62.46
65598;SHT31;52267;51.984;20.956;2023-06-14T09:02:54;22.39;62.54
65598;SHT31;52267;51.984;20.956;2023-06-14T09:05:25;22.38;62.19
65598;SHT31;52267;51.984;20.956;2023-06-14T09:07:53;22.36;62.24
65598;SHT31;52267;51.984;20.956;2023-06-14T09:10:21;22.25;62.23
65598;SHT31;52267;51.984;20.956;2023-06-14T09:12:50;22.30;62.24
65598;SHT31;52267;51.984;20.956;2023-06-14T09:15:18;22.45;61.42
65598;SHT31;52267;51.984;20.956;2023-06-14T09:17:45;22.56;60.29
65598;SHT31;52267;51.984;20.956;2023-06-14T09:20:12;22.76;60.26
65598;SHT31;52267;51.984;20.956;2023-06-14T09:22:45;22.85;59.97
65598;SHT31;52267;51.984;20.956;2023-06-14T09:25:12;23.18;59.72
65598;SHT31;52267;51.984;20.956;2023-06-14T09:27:41;23.56;57.43
65598;SHT31;52267;51.984;20.956;2023-06-14T09:30:09;23.70;58.46
65598;SHT31;52267;51.984;20.956;2023-06-14T09:32:37;23.56;57.60
65598;SHT31;52267;51.984;20.956;2023-06-14T09:35:09;23.44;58.75
65598;SHT31;52267;51.984;20.956;2023-06-14T09:37:36;23.31;59.27
65598;SHT31;52267;51.984;20.956;2023-06-14T09:40:06;23.10;58.39
65598;SHT31;52267;51.984;20.956;2023-06-14T09:42:34;22.93;58.20
65598;SHT31;52267;51.984;20.956;2023-06-14T09:45:03;23.11;58.56
65598;SHT31;52267;51.984;20.956;2023-06-14T09:47:31;23.57;57.43
65598;SHT31;52267;51.984;20.956;2023-06-14T09:49:58;23.70;56.87
65598;SHT31;52267;51.984;20.956;2023-06-14T09:52:26;24.16;56.45
65598;SHT31;52267;51.984;20.956;2023-06-14T09:54:54;24.57;55.08
65598;SHT31;52267;51.984;20.956;2023-06-14T09:57:23;24.89;55.01
65598;SHT31;52267;51.984;20.956;2023-06-14T09:59:53;25.01;54.93
65598;SHT31;52267;51.984;20.956;2023-06-14T10:02:31;24.80;54.59
65598;SHT31;52267;51.984;20.956;2023-06-14T10:05:07;24.95;53.81
65598;SHT31;52267;51.984;20.956;2023-06-14T10:10:17;25.23;54.13
65598;SHT31;52267;51.984;20.956;2023-06-14T10:12:45;25.00;53.84
65598;SHT31;52267;51.984;20.956;2023-06-14T10:15:27;25.17;53.53
65598;SHT31;52267;51.984;20.956;2023-06-14T10:21:05;25.82;51.82
65598;SHT31;52267;51.984;20.956;2023-06-14T10:23:49;25.82;52.12
65598;SHT31;52267;51.984;20.956;2023-06-14T10:26:17;25.85;52.31
65598;SHT31;52267;51.984;20.956;2023-06-14T10:28:57;25.89;51.18
65598;SHT31;52267;51.984;20.956;2023-06-14T10:34:20;25.56;52.00
65598;SHT31;52267;51.984;20.956;2023-06-14T10:39:46;24.95;52.21
65598;SHT31;52267;51.984;20.956;2023-06-14T10:42:14;24.71;52.52
65598;SHT31;52267;51.984;20.956;2023-06-14T10:44:51;24.42;52.82
65598;SHT31;52267;51.984;20.956;2023-06-14T10:47:29;24.24;53.05
65598;SHT31;52267;51.984;20.956;2023-06-14T10:50:05;24.17;53.35
65598;SHT31;52267;51.984;20.956;2023-06-14T10:52:39;24.04;53.54
65598;SHT31;52267;51.984;20.956;2023-06-14T10:55:08;23.81;53.43
65598;SHT31;52267;51.984;20.956;2023-06-14T10:57:45;23.58;53.79
65598;SHT31;52267;51.984;20.956;2023-06-14T11:00:25;23.44;54.06
65598;SHT31;52267;51.984;20.956;2023-06-14T11:05:57;23.08;54.04
65598;SHT31;52267;51.984;20.956;2023-06-14T11:11:01;22.77;54.27
65598;SHT31;52267;51.984;20.956;2023-06-14T11:13:36;22.61;54.60
65598;SHT31;52267;51.984;20.956;2023-06-14T11:16:15;22.41;54.63
65598;SHT31;52267;51.984;20.956;2023-06-14T11:18:44;22.33;55.08
65598;SHT31;52267;51.984;20.956;2023-06-14T11:21:15;22.25;55.45
65598;SHT31;52267;51.984;20.956;2023-06-14T11:23:51;22.16;55.31
65598;SHT31;52267;51.984;20.956;2023-06-14T11:26:26;22.09;55.29
65598;SHT31;52267;51.984;20.956;2023-06-14T11:29:00;21.97;55.32
65598;SHT31;52267;51.984;20.956;2023-06-14T11:31:29;21.90;55.56
65598;SHT31;52267;51.984;20.956;2023-06-14T11:33:57;21.83;55.73
65598;SHT31;52267;51.984;20.956;2023-06-14T11:36:26;21.81;55.68
65598;SHT31;52267;51.984;20.956;2023-06-14T11:39:03;21.82;55.76
65598;SHT31;52267;51.984;20.956;2023-06-14T11:44:11;21.85;55.99
65598;SHT31;52267;51.984;20.956;2023-06-14T11:46:39;21.81;56.07
65598;SHT31;52267;51.984;20.956;2023-06-14T11:49:06;21.77;56.25
65598;SHT31;52267;51.984;20.956;2023-06-14T11:51:35;21.59;56.49
65598;SHT31;52267;51.984;20.956;2023-06-14T11:54:03;21.56;56.68
65598;SHT31;52267;51.984;20.956;2023-06-14T11:56:32;21.52;56.74
65598;SHT31;52267;51.984;20.956;2023-06-14T11:58:59;21.39;56.61
65598;SHT31;52267;51.984;20.956;2023-06-14T12:01:29;21.35;56.81
65598;SHT31;52267;51.984;20.956;2023-06-14T12:03:58;21.36;57.04
65598;SHT31;52267;51.984;20.956;2023-06-14T12:06:27;21.38;56.90
65598;SHT31;52267;51.984;20.956;2023-06-14T12:08:59;21.40;56.59
65598;SHT31;52267;51.984;20.956;2023-06-14T12:11:31;21.43;55.81
65598;SHT31;52267;51.984;20.956;2023-06-14T12:14:00;21.48;55.47
65598;SHT31;52267;51.984;20.956;2023-06-14T12:16:31;21.48;55.51
65598;SHT31;52267;51.984;20.956;2023-06-14T12:19:25;21.50;55.22
65598;SHT31;52267;51.984;20.956;2023-06-14T12:21:52;21.50;55.18
65598;SHT31;52267;51.984;20.956;2023-06-14T12:24:19;21.42;55.34
65598;SHT31;52267;51.984;20.956;2023-06-14T12:26:47;21.41;55.29
65598;SHT31;52267;51.984;20.956;2023-06-14T12:29:14;21.40;55.25
65598;SHT31;52267;51.984;20.956;2023-06-14T12:31:41;21.76;55.12
65598;SHT31;52267;51.984;20.956;2023-06-14T12:34:08;21.97;55.15
65598;SHT31;52267;51.984;20.956;2023-06-14T12:36:36;22.12;54.55
65598;SHT31;52267;51.984;20.956;2023-06-14T12:39:08;22.57;54.44
65598;SHT31;52267;51.984;20.956;2023-06-14T12:41:35;22.80;53.71
65598;SHT31;52267;51.984;20.956;2023-06-14T12:44:03;22.87;53.51
65598;SHT31;52267;51.984;20.956;2023-06-14T12:46:31;22.96;53.08
65598;SHT31;52267;51.984;20.956;2023-06-14T12:48:58;22.97;53.00
65598;SHT31;52267;51.984;20.956;2023-06-14T12:51:26;22.91;52.84
65598;SHT31;52267;51.984;20.956;2023-06-14T12:53:53;22.80;52.91
65598;SHT31;52267;51.984;20.956;2023-06-14T12:56:20;22.80;52.67
65598;SHT31;52267;51.984;20.956;2023-06-14T12:58:47;22.88;52.62
65598;SHT31;52267;51.984;20.956;2023-06-14T13:01:14;23.04;52.19
65598;SHT31;52267;51.984;20.956;2023-06-14T13:03:41;23.39;51.93
65598;SHT31;52267;51.984;20.956;2023-06-14T13:06:08;23.52;51.54
65598;SHT31;52267;51.984;20.956;2023-06-14T13:08:35;23.57;51.65
65598;SHT31;52267;51.984;20.956;2023-06-14T13:11:03;23.59;51.30
65598;SHT31;52267;51.984;20.956;2023-06-14T13:13:30;23.49;51.48
65598;SHT31;52267;51.984;20.956;2023-06-14T13:15:57;23.41;51.47
65598;SHT31;52267;51.984;20.956;2023-06-14T13:18:24;23.44;51.50
65598;SHT31;52267;51.984;20.956;2023-06-14T13:20:51;23.34;51.03
65598;SHT31;52267;51.984;20.956;2023-06-14T13:23:18;23.36;50.80
65598;SHT31;52267;51.984;20.956;2023-06-14T13:25:45;23.34;50.27
65598;SHT31;52267;51.984;20.956;2023-06-14T13:28:13;23.20;49.15
65598;SHT31;52267;51.984;20.956;2023-06-14T13:30:40;23.26;49.06
65598;SHT31;52267;51.984;20.956;2023-06-14T13:33:07;23.39;49.26
65598;SHT31;52267;51.984;20.956;2023-06-14T13:35:34;23.58;48.86
65598;SHT31;52267;51.984;20.956;2023-06-14T13:38:01;23.90;48.21
65598;SHT31;52267;51.984;20.956;2023-06-14T13:40:29;24.05;48.04
65598;SHT31;52267;51.984;20.956;2023-06-14T13:42:56;24.17;47.81
65598;SHT31;52267;51.984;20.956;2023-06-14T13:45:23;24.36;48.16
65598;SHT31;52267;51.984;20.956;2023-06-14T13:47:50;24.51;47.56
65598;SHT31;52267;51.984;20.956;2023-06-14T13:50:18;24.58;47.08
65598;SHT31;52267;51.984;20.956;2023-06-14T13:52:45;24.42;46.73
65598;SHT31;52267;51.984;20.956;2023-06-14T13:55:12;24.28;47.35
65598;SHT31;52267;51.984;20.956;2023-06-14T13:57:40;24.10;47.63
65598;SHT31;52267;51.984;20.956;2023-06-14T14:00:07;23.94;47.97
65598;SHT31;52267;51.984;20.956;2023-06-14T14:02:35;23.81;47.99
65598;SHT31;52267;51.984;20.956;2023-06-14T14:05:03;23.60;47.23
65598;SHT31;52267;51.984;20.956;2023-06-14T14:07:30;23.43;47.96
65598;SHT31;52267;51.984;20.956;2023-06-14T14:09:57;23.29;48.12
65598;SHT31;52267;51.984;20.956;2023-06-14T14:12:24;23.22;48.24
65598;SHT31;52267;51.984;20.956;2023-06-14T14:14:51;23.24;47.97
65598;SHT31;52267;51.984;20.956;2023-06-14T14:17:18;23.28;48.06
65598;SHT31;52267;51.984;20.956;2023-06-14T14:19:46;23.47;47.52
65598;SHT31;52267;51.984;20.956;2023-06-14T14:22:13;23.64;47.46
65598;SHT31;52267;51.984;20.956;2023-06-14T14:24:40;23.59;47.83
65598;SHT31;52267;51.984;20.956;2023-06-14T14:27:07;23.49;47.95
65598;SHT31;52267;51.984;20.956;2023-06-14T14:29:34;23.41;48.01
65598;SHT31;52267;51.984;20.956;2023-06-14T14:32:02;23.27;48.05
65598;SHT31;52267;51.984;20.956;2023-06-14T14:34:29;23.16;48.25
65598;SHT31;52267;51.984;20.956;2023-06-14T14:36:56;23.11;48.67
65598;SHT31;52267;51.984;20.956;2023-06-14T14:39:24;23.12;48.57
65598;SHT31;52267;51.984;20.956;2023-06-14T14:41:51;23.10;48.83
65598;SHT31;52267;51.984;20.956;2023-06-14T14:44:19;23.02;49.01
65598;SHT31;52267;51.984;20.956;2023-06-14T14:46:46;22.90;48.81
65598;SHT31;52267;51.984;20.956;2023-06-14T14:49:13;22.83;48.81
65598;SHT31;52267;51.984;20.956;2023-06-14T14:51:40;22.79;48.70
65598;SHT31;52267;51.984;20.956;2023-06-14T14:54:07;22.71;48.88
65598;SHT31;52267;51.984;20.956;2023-06-14T14:56:34;22.59;49.03
65598;SHT31;52267;51.984;20.956;2023-06-14T14:59:02;22.62;49.36
65598;SHT31;52267;51.984;20.956;2023-06-14T15:01:29;22.94;49.35
65598;SHT31;52267;51.984;20.956;2023-06-14T15:03:56;23.35;49.23
65598;SHT31;52267;51.984;20.956;2023-06-14T15:06:23;23.63;48.22
65598;SHT31;52267;51.984;20.956;2023-06-14T15:08:50;23.70;48.46
65598;SHT31;52267;51.984;20.956;2023-06-14T15:11:18;23.60;48.62
65598;SHT31;52267;51.984;20.956;2023-06-14T15:13:46;23.41;48.88
65598;SHT31;52267;51.984;20.956;2023-06-14T15:16:14;23.28;48.87
65598;SHT31;52267;51.984;20.956;2023-06-14T15:18:41;23.25;49.23
65598;SHT31;52267;51.984;20.956;2023-06-14T15:21:08;23.19;48.76
65598;SHT31;52267;51.984;20.956;2023-06-14T15:23:36;23.07;49.14
65598;SHT31;52267;51.984;20.956;2023-06-14T15:26:03;22.95;49.41
65598;SHT31;52267;51.984;20.956;2023-06-14T15:28:30;22.69;49.56
65598;SHT31;52267;51.984;20.956;2023-06-14T15:30:59;22.56;49.78
65598;SHT31;52267;51.984;20.956;2023-06-14T15:33:27;22.48;49.56
65598;SHT31;52267;51.984;20.956;2023-06-14T15:35:54;22.38;49.46
65598;SHT31;52267;51.984;20.956;2023-06-14T15:38:21;22.25;49.49
65598;SHT31;52267;51.984;20.956;2023-06-14T15:40:49;22.11;49.62
65598;SHT31;52267;51.984;20.956;2023-06-14T15:43:16;21.93;49.35
65598;SHT31;52267;51.984;20.956;2023-06-14T15:45:43;21.91;49.94
65598;SHT31;52267;51.984;20.956;2023-06-14T15:48:11;21.86;50.12